Time;durP1;ratioP1;P1;durP2;ratioP2;P2;SDS_P1;SDS_P2;PMS_P1;PMS_P2;Temp;Humidity;BMP_temperature;BMP_pressure;BME280_temperature;BME280_humidity;BME280_pressure;Samples;Min_cycle;Max_cycle;Signal;HPM_P1;HPM_P2
2021/08/09 00:01:10;;;;;;;;;;;;;;;16.04;58.48;100843.17;1739167;81;20218;-76
2021/08/09 00:03:36;;;;;;;;;;;;;;;16.04;58.53;100837.50;1740752;82;20168;-76
2021/08/09 00:06:03;;;;;;;;;;;;;;;16.02;58.59;100828.03;1753029;81;20090;-76
2021/08/09 00:08:29;;;;;;;;;;;;;;;16.04;58.63;100835.34;1736400;81;20085;-76
2021/08/09 00:10:55;;;;;;;;;;;;;;;16.04;58.79;100842.72;1723113;82;20105;-76
2021/08/09 00:13:21;;;;;;;;;;;;;;;16.10;58.86;100845.56;1723227;82;20104;-76
2021/08/09 00:15:47;;;;;;;;;;;;;;;16.09;58.85;100836.04;1732593;82;20090;-76
2021/08/09 00:18:13;;;;;;;;;;;;;;;16.09;59.00;100837.34;1733342;81;20778;-76
2021/08/09 00:20:39;;;;;;;;;;;;;;;16.10;59.08;100842.51;1722900;83;20159;-76
2021/08/09 00:23:05;;;;;;;;;;;;;;;16.15;59.20;100854.05;1722967;83;20160;-76
2021/08/09 00:25:31;;;;;;;;;;;;;;;16.20;59.22;100869.09;1730378;82;20769;-76
2021/08/09 00:27:58;;;;;;;;;;;;;;;16.23;59.10;100863.31;1743145;81;20104;-76
2021/08/09 00:30:24;;;;;;;;;;;;;;;16.26;59.21;100858.89;1722990;83;20163;-76
2021/08/09 00:32:50;;;;;;;;;;;;;;;16.30;59.28;100855.27;1731321;82;20106;-76
2021/08/09 00:35:16;;;;;;;;;;;;;;;16.30;59.30;100850.05;1724471;81;20147;-76
2021/08/09 00:37:42;;;;;;;;;;;;;;;16.31;59.40;100860.44;1723112;83;20254;-76
2021/08/09 00:40:09;;;;;;;;;;;;;;;16.35;59.37;100866.40;1723640;82;20141;-76
2021/08/09 00:42:35;;;;;;;;;;;;;;;16.39;59.48;100873.22;1739139;82;20132;-76
2021/08/09 00:45:01;;;;;;;;;;;;;;;16.41;59.49;100872.25;1722935;82;20975;-76
2021/08/09 00:47:27;;;;;;;;;;;;;;;16.43;59.38;100869.13;1722843;82;20815;-76
2021/08/09 00:49:53;;;;;;;;;;;;;;;16.46;59.49;100866.87;1723101;82;20465;-76
2021/08/09 00:52:25;;;;;;;;;;;;;;;16.50;59.49;100861.94;1747254;82;20113;-76
2021/08/09 00:54:51;;;;;;;;;;;;;;;16.55;59.39;100862.62;1735651;81;20735;-76
2021/08/09 00:57:17;;;;;;;;;;;;;;;16.59;59.47;100864.66;1722843;82;20102;-76
2021/08/09 00:59:44;;;;;;;;;;;;;;;16.63;59.53;100871.48;1724500;80;20115;-76
2021/08/09 01:02:10;;;;;;;;;;;;;;;16.67;59.59;100870.45;1742645;82;20097;-76
2021/08/09 01:04:36;;;;;;;;;;;;;;;16.71;59.59;100873.35;1752308;81;20102;-76
2021/08/09 01:07:03;;;;;;;;;;;;;;;16.73;59.41;100875.45;1723115;82;20163;-76
2021/08/09 01:09:43;;;;;;;;;;;;;;;16.72;59.48;100875.91;1723045;80;20085;-76
2021/08/09 01:12:33;;;;;;;;;;;;;;;16.73;59.50;100884.59;1746623;82;20106;-76
2021/08/09 01:15:20;;;;;;;;;;;;;;;16.73;59.51;100888.05;1744957;80;20463;-76
2021/08/09 01:17:48;;;;;;;;;;;;;;;16.72;59.59;100893.34;1747818;82;20130;-76
2021/08/09 01:20:24;;;;;;;;;;;;;;;16.75;59.63;100898.45;1739819;81;20108;-76
2021/08/09 01:22:56;;;;;;;;;;;;;;;16.75;59.72;100901.91;1741854;82;20094;-76
2021/08/09 01:25:26;;;;;;;;;;;;;;;16.77;59.70;100900.55;1730045;81;20136;-76
2021/08/09 01:27:53;;;;;;;;;;;;;;;16.78;59.72;100903.10;1725749;82;20084;-76
2021/08/09 01:30:20;;;;;;;;;;;;;;;16.80;59.77;100903.05;1726378;83;20117;-76
2021/08/09 01:32:48;;;;;;;;;;;;;;;16.80;59.79;100900.44;1731048;82;20118;-76
2021/08/09 01:35:16;;;;;;;;;;;;;;;16.80;59.77;100899.13;1752952;82;20442;-76
2021/08/09 01:37:44;;;;;;;;;;;;;;;16.79;59.80;100906.11;1739947;81;20133;-76
2021/08/09 01:40:13;;;;;;;;;;;;;;;16.81;59.89;100896.91;1745915;81;20126;-76
2021/08/09 01:42:41;;;;;;;;;;;;;;;16.82;59.91;100899.47;1741814;81;20143;-76
2021/08/09 01:45:08;;;;;;;;;;;;;;;16.81;59.86;100899.52;1723273;82;20085;-76
2021/08/09 01:47:38;;;;;;;;;;;;;;;16.81;59.85;100907.36;1728161;82;20090;-76
2021/08/09 01:50:05;;;;;;;;;;;;;;;16.78;59.97;100904.41;1741086;82;20129;-76
2021/08/09 01:52:32;;;;;;;;;;;;;;;16.79;60.00;100909.17;1723101;83;20109;-76
2021/08/09 01:55:01;;;;;;;;;;;;;;;16.80;60.00;100913.49;1726962;82;20102;-76
2021/08/09 01:57:28;;;;;;;;;;;;;;;16.82;60.11;100914.29;1732858;82;20092;-76
2021/08/09 01:59:54;;;;;;;;;;;;;;;16.82;60.06;100915.59;1723235;83;20085;-76
2021/08/09 02:02:26;;;;;;;;;;;;;;;16.84;60.13;100917.24;1725135;82;20137;-76
2021/08/09 02:04:52;;;;;;;;;;;;;;;16.87;60.16;100921.50;1732054;82;20574;-76
2021/08/09 02:07:18;;;;;;;;;;;;;;;16.90;60.23;100918.77;1723003;82;20092;-76
2021/08/09 02:09:44;;;;;;;;;;;;;;;16.89;60.13;100910.55;1730277;82;20231;-76
2021/08/09 02:12:10;;;;;;;;;;;;;;;16.87;60.17;100913.21;1723970;82;20160;-76
2021/08/09 02:14:41;;;;;;;;;;;;;;;16.88;60.23;100917.98;1738042;81;20169;-76
2021/08/09 02:17:19;;;;;;;;;;;;;;;16.88;60.26;100916.22;1751619;81;20098;-76
2021/08/09 02:19:56;;;;;;;;;;;;;;;16.87;60.22;100913.66;1751317;81;20122;-76
2021/08/09 02:22:25;;;;;;;;;;;;;;;16.84;60.22;100913.78;1747356;80;20092;-76
2021/08/09 02:25:03;;;;;;;;;;;;;;;16.79;60.27;100917.02;1751136;80;20106;-76
2021/08/09 02:27:35;;;;;;;;;;;;;;;16.73;60.13;100920.70;1760472;80;20412;-76
2021/08/09 02:30:04;;;;;;;;;;;;;;;16.62;60.31;100925.91;1711276;83;20125;-76
2021/08/09 02:32:31;;;;;;;;;;;;;;;16.58;60.37;100925.63;1697583;83;20165;-76
2021/08/09 02:34:59;;;;;;;;;;;;;;;16.52;60.38;100918.86;1716724;82;20381;-76
2021/08/09 02:37:26;;;;;;;;;;;;;;;16.48;60.43;100935.53;1698809;82;20083;-76
2021/08/09 02:39:53;;;;;;;;;;;;;;;16.41;60.44;100938.81;1694149;83;20131;-76
2021/08/09 02:42:20;;;;;;;;;;;;;;;16.36;60.47;100949.01;1707993;83;20128;-76
2021/08/09 02:44:47;;;;;;;;;;;;;;;16.30;60.50;100955.29;1679307;83;20099;-76
2021/08/09 02:47:13;;;;;;;;;;;;;;;16.25;60.48;100962.42;1700009;83;20131;-76
2021/08/09 02:49:45;;;;;;;;;;;;;;;16.19;60.58;100962.63;1701697;83;20115;-76
2021/08/09 02:52:18;;;;;;;;;;;;;;;16.12;60.50;100968.50;1687865;84;20150;-76
2021/08/09 02:54:46;;;;;;;;;;;;;;;16.03;60.65;100970.59;1690780;83;20130;-76
2021/08/09 02:57:14;;;;;;;;;;;;;;;16.01;60.71;100972.39;1700311;83;20523;-76
2021/08/09 02:59:40;;;;;;;;;;;;;;;15.97;60.71;100972.94;1690781;84;20108;-76
2021/08/09 03:02:07;;;;;;;;;;;;;;;15.93;60.65;100972.64;1706259;83;20656;-76
2021/08/09 03:04:35;;;;;;;;;;;;;;;15.87;60.75;100971.53;1712638;83;20092;-76
2021/08/09 03:07:06;;;;;;;;;;;;;;;15.83;60.80;100972.53;1701533;83;20110;-76
2021/08/09 03:09:37;;;;;;;;;;;;;;;15.80;60.71;100981.30;1690146;83;20109;-76
2021/08/09 03:12:05;;;;;;;;;;;;;;;15.71;60.79;100994.62;1705152;83;20148;-76
2021/08/09 03:14:31;;;;;;;;;;;;;;;15.67;60.92;100995.63;1709995;83;20494;-76
2021/08/09 03:17:00;;;;;;;;;;;;;;;15.61;60.88;100998.42;1698445;83;20130;-76
2021/08/09 03:19:26;;;;;;;;;;;;;;;15.56;60.96;100993.80;1685619;83;20133;-76
2021/08/09 03:21:57;;;;;;;;;;;;;;;15.52;61.00;101004.76;1692664;83;20139;-76
2021/08/09 03:24:24;;;;;;;;;;;;;;;15.50;61.06;101009.16;1707532;83;20109;-76
2021/08/09 03:26:51;;;;;;;;;;;;;;;15.48;61.08;101017.48;1692182;83;20111;-76
2021/08/09 03:29:17;;;;;;;;;;;;;;;15.46;61.12;101021.03;1701532;83;20129;-76
2021/08/09 03:31:44;;;;;;;;;;;;;;;15.41;61.06;101017.26;1708466;83;20109;-76
2021/08/09 03:34:10;;;;;;;;;;;;;;;15.36;61.13;101018.29;1692853;83;20405;-76
2021/08/09 03:36:41;;;;;;;;;;;;;;;15.32;61.21;101023.19;1692813;83;20097;-76
2021/08/09 03:39:22;;;;;;;;;;;;;;;15.30;61.30;101028.44;1700371;83;20112;-76
2021/08/09 03:41:54;;;;;;;;;;;;;;;15.29;61.37;101030.64;1691452;83;20097;-76
2021/08/09 03:44:21;;;;;;;;;;;;;;;15.29;61.40;101029.34;1697639;83;20105;-76
2021/08/09 03:46:47;;;;;;;;;;;;;;;15.30;61.31;101037.55;1701626;83;20139;-76
2021/08/09 03:49:15;;;;;;;;;;;;;;;15.27;61.37;101032.43;1702967;82;20139;-76
2021/08/09 03:51:41;;;;;;;;;;;;;;;15.26;61.49;101033.33;1715267;82;20282;-76
2021/08/09 03:54:09;;;;;;;;;;;;;;;15.23;61.39;101040.78;1702249;82;20145;-76
2021/08/09 03:56:53;;;;;;;;;;;;;;;15.18;61.44;101043.97;1713145;82;20189;-77
2021/08/09 03:59:19;;;;;;;;;;;;;;;15.14;61.49;101050.16;1707596;82;21707;-77
2021/08/09 04:01:48;;;;;;;;;;;;;;;15.12;61.68;101043.28;1697623;82;20266;-77
2021/08/09 04:04:31;;;;;;;;;;;;;;;15.14;61.74;101041.05;1708507;82;20206;-77
2021/08/09 04:06:57;;;;;;;;;;;;;;;15.12;61.76;101036.32;1712282;81;20550;-77
2021/08/09 04:09:23;;;;;;;;;;;;;;;15.11;61.75;101035.91;1722218;82;21641;-77
2021/08/09 04:11:51;;;;;;;;;;;;;;;15.12;61.86;101046.74;1704031;82;20948;-77
2021/08/09 04:14:17;;;;;;;;;;;;;;;15.13;61.88;101044.55;1706708;82;20133;-77
2021/08/09 04:16:43;;;;;;;;;;;;;;;15.13;61.92;101055.41;1705484;81;20528;-77
2021/08/09 04:19:09;;;;;;;;;;;;;;;15.12;61.93;101054.55;1704112;82;21635;-76
2021/08/09 04:21:36;;;;;;;;;;;;;;;15.14;61.74;101055.37;1709582;82;20130;-76
2021/08/09 04:24:05;;;;;;;;;;;;;;;15.14;62.11;101058.42;1714570;82;20976;-76
2021/08/09 04:26:31;;;;;;;;;;;;;;;15.14;62.04;101054.06;1708112;82;20861;-76
2021/08/09 04:28:57;;;;;;;;;;;;;;;15.15;62.28;101053.17;1712372;82;20158;-76
2021/08/09 04:31:32;;;;;;;;;;;;;;;15.19;62.32;101053.49;1723382;81;20532;-76
2021/08/09 04:33:58;;;;;;;;;;;;;;;15.22;62.30;101059.06;1698895;81;20489;-76
2021/08/09 04:36:24;;;;;;;;;;;;;;;15.25;62.16;101065.49;1710176;81;20802;-76
2021/08/09 04:39:09;;;;;;;;;;;;;;;15.27;62.38;101068.91;1721813;81;20185;-76
2021/08/09 04:41:35;;;;;;;;;;;;;;;15.31;62.36;101073.14;1711163;81;21015;-76
2021/08/09 04:44:01;;;;;;;;;;;;;;;15.30;61.99;101069.27;1713919;81;20111;-76
2021/08/09 04:46:28;;;;;;;;;;;;;;;15.28;62.33;101063.25;1720442;81;20758;-76
2021/08/09 04:48:54;;;;;;;;;;;;;;;15.30;62.55;101066.22;1715921;82;20263;-77
2021/08/09 04:51:20;;;;;;;;;;;;;;;15.32;62.53;101067.03;1688240;84;20450;-77
2021/08/09 04:53:48;;;;;;;;;;;;;;;15.35;62.48;101062.18;1689789;83;20703;-77
2021/08/09 04:56:14;;;;;;;;;;;;;;;15.39;62.66;101062.05;1710857;82;20237;-77
2021/08/09 04:58:40;;;;;;;;;;;;;;;15.41;62.66;101068.08;1720163;82;20736;-76
2021/08/09 05:01:20;;;;;;;;;;;;;;;15.45;62.38;101068.39;1700616;82;20794;-76
2021/08/09 05:03:45;;;;;;;;;;;;;;;15.46;62.72;101075.76;1701382;82;20246;-76
2021/08/09 05:08:40;;;;;;;;;;;;;;;15.52;62.76;101073.83;1822662;76;20816;-76
2021/08/09 05:11:07;;;;;;;;;;;;;;;15.53;62.84;101078.59;1819766;77;20462;-76
2021/08/09 05:13:33;;;;;;;;;;;;;;;15.60;62.49;101075.39;1798371;77;20228;-76
2021/08/09 05:15:59;;;;;;;;;;;;;;;15.68;63.08;101083.37;1807806;77;20787;-76
2021/08/09 05:18:25;;;;;;;;;;;;;;;15.91;62.88;101075.30;1812983;78;20645;-76
2021/08/09 05:20:51;;;;;;;;;;;;;;;16.26;63.12;101073.73;1813674;77;20219;-76
2021/08/09 05:23:17;;;;;;;;;;;;;;;16.78;63.01;101070.25;1819688;77;20508;-76
2021/08/09 05:25:43;;;;;;;;;;;;;;;17.40;63.45;101071.52;1793822;78;170763;-76
2021/08/09 05:28:09;;;;;;;;;;;;;;;18.16;62.99;101076.44;1782204;79;20233;-76
2021/08/09 05:30:35;;;;;;;;;;;;;;;18.84;62.70;101083.19;1773196;79;20197;-76
2021/08/09 05:33:02;;;;;;;;;;;;;;;19.39;62.30;101085.99;1779992;79;20205;-76
2021/08/09 05:35:28;;;;;;;;;;;;;;;19.92;62.46;101092.72;1773926;79;20425;-76
2021/08/09 05:37:54;;;;;;;;;;;;;;;20.55;62.38;101093.63;1775887;79;20440;-76
2021/08/09 05:40:20;;;;;;;;;;;;;;;21.08;61.93;101096.14;1776369;79;20124;-76
2021/08/09 05:42:49;;;;;;;;;;;;;;;21.38;61.51;101106.84;1768411;79;20133;-76
2021/08/09 05:45:14;;;;;;;;;;;;;;;21.81;61.47;101106.70;1786355;79;20138;-76
2021/08/09 05:47:40;;;;;;;;;;;;;;;22.17;61.34;101110.86;1787180;79;20727;-76
2021/08/09 05:50:11;;;;;;;;;;;;;;;22.68;61.19;101116.23;1796186;79;20370;-77
2021/08/09 05:52:37;;;;;;;;;;;;;;;22.77;60.99;101116.55;1780607;79;20104;-77
2021/08/09 05:55:05;;;;;;;;;;;;;;;22.92;60.91;101117.90;1775961;79;20161;-77
2021/08/09 05:57:31;;;;;;;;;;;;;;;23.35;61.00;101122.77;1782251;79;20400;-76
2021/08/09 05:59:57;;;;;;;;;;;;;;;24.00;60.84;101117.78;1822300;77;20279;-76
2021/08/09 06:02:24;;;;;;;;;;;;;;;24.54;60.60;101120.43;1818167;77;20827;-76
2021/08/09 06:04:50;;;;;;;;;;;;;;;24.90;60.69;101121.09;1820522;77;20732;-76
2021/08/09 06:07:17;;;;;;;;;;;;;;;25.01;60.30;101117.24;1815339;77;20191;-76
2021/08/09 06:09:43;;;;;;;;;;;;;;;24.97;60.06;101120.58;1818107;77;20562;-77
2021/08/09 06:12:10;;;;;;;;;;;;;;;25.16;60.00;101120.64;1808340;77;20542;-77
2021/08/09 06:14:37;;;;;;;;;;;;;;;25.55;60.13;101123.61;1816575;77;20088;-77
2021/08/09 06:17:04;;;;;;;;;;;;;;;25.68;59.58;101122.67;1812850;77;20123;-77
2021/08/09 06:19:30;;;;;;;;;;;;;;;25.90;59.36;101125.96;1813789;77;20124;-77
2021/08/09 06:21:56;;;;;;;;;;;;;;;25.72;58.95;101125.95;1811132;77;20446;-77
2021/08/09 06:24:22;;;;;;;;;;;;;;;25.45;58.73;101127.41;1736636;81;20173;-77
2021/08/09 06:26:49;;;;;;;;;;;;;;;25.56;59.10;101126.16;1731284;82;20431;-77
2021/08/09 06:29:16;;;;;;;;;;;;;;;25.59;58.47;101123.77;1739117;81;20102;-77
2021/08/09 06:31:42;;;;;;;;;;;;;;;25.76;58.17;101121.28;1736714;81;20430;-77
2021/08/09 06:34:08;;;;;;;;;;;;;;;25.93;58.66;101119.59;1735729;81;20404;-77
2021/08/09 06:36:36;;;;;;;;;;;;;;;26.08;58.28;101125.56;1785929;79;20126;-77
2021/08/09 06:39:02;;;;;;;;;;;;;;;26.16;57.74;101125.84;1778314;79;20522;-77
2021/08/09 06:41:32;;;;;;;;;;;;;;;26.37;57.51;101122.50;1734439;81;20093;-77
2021/08/09 06:43:56;;;;;;;;;;;;;;;26.59;57.50;101124.85;1750170;81;20099;-77
2021/08/09 06:46:22;;;;;;;;;;;;;;;26.78;57.26;101130.47;1731548;81;20154;-77
2021/08/09 06:48:48;;;;;;;;;;;;;;;26.70;57.00;101135.02;1770104;79;20173;-77
2021/08/09 06:51:14;;;;;;;;;;;;;;;26.80;56.43;101138.31;1778091;79;20094;-77
2021/08/09 06:53:40;;;;;;;;;;;;;;;26.76;56.58;101143.00;1766598;79;20102;-77
2021/08/09 06:56:06;;;;;;;;;;;;;;;26.69;56.06;101143.10;1766581;79;20116;-77
2021/08/09 06:58:33;;;;;;;;;;;;;;;26.86;55.98;101155.95;1770159;79;20086;-77
2021/08/09 07:00:59;;;;;;;;;;;;;;;27.27;55.98;101155.45;1768819;79;20103;-78
2021/08/09 07:03:25;;;;;;;;;;;;;;;27.54;55.48;101159.58;1765547;79;20428;-78
2021/08/09 07:05:51;;;;;;;;;;;;;;;27.42;55.65;101160.05;1767977;79;20106;-78
2021/08/09 07:08:17;;;;;;;;;;;;;;;27.44;55.05;101163.91;1761985;79;20191;-77
2021/08/09 07:10:44;;;;;;;;;;;;;;;27.67;54.86;101158.49;1764066;79;20106;-79
2021/08/09 07:13:25;;;;;;;;;;;;;;;27.94;54.78;101166.57;1740042;80;20099;-79
2021/08/09 07:15:51;;;;;;;;;;;;;;;28.44;54.53;101170.45;1762041;79;20108;-79
2021/08/09 07:18:18;;;;;;;;;;;;;;;28.70;54.34;101170.93;1761368;79;20089;-79
2021/08/09 07:20:46;;;;;;;;;;;;;;;28.84;53.93;101171.98;1768175;79;20108;-79
2021/08/09 07:23:15;;;;;;;;;;;;;;;28.92;54.22;101171.34;1773198;79;20100;-79
2021/08/09 07:25:40;;;;;;;;;;;;;;;28.87;53.64;101171.73;1774491;79;20112;-79
2021/08/09 07:28:12;;;;;;;;;;;;;;;28.95;54.00;101174.59;1745266;80;20134;-79
2021/08/09 07:30:38;;;;;;;;;;;;;;;28.53;52.79;101180.83;1774505;79;21201;-79
2021/08/09 07:33:04;;;;;;;;;;;;;;;28.31;52.48;101171.94;1739210;81;20728;-79
2021/08/09 07:35:31;;;;;;;;;;;;;;;28.28;52.54;101180.17;1757352;79;20102;-79
2021/08/09 07:37:57;;;;;;;;;;;;;;;28.17;52.28;101177.98;1745198;80;20606;-79
2021/08/09 07:40:23;;;;;;;;;;;;;;;27.99;52.06;101179.02;1774235;79;20110;-79
2021/08/09 07:42:49;;;;;;;;;;;;;;;28.22;52.05;101171.36;1774938;79;20190;-79
2021/08/09 07:45:15;;;;;;;;;;;;;;;28.39;51.63;101166.00;1778366;79;20167;-79
2021/08/09 07:47:44;;;;;;;;;;;;;;;28.54;51.51;101162.56;1773218;79;20108;-79
2021/08/09 07:50:10;;;;;;;;;;;;;;;28.25;50.95;101158.30;1777882;79;20167;-79
2021/08/09 07:52:36;;;;;;;;;;;;;;;28.11;50.82;101162.04;1776089;79;20088;-79
2021/08/09 07:55:03;;;;;;;;;;;;;;;28.09;50.67;101171.11;1775897;79;20120;-79
2021/08/09 07:57:29;;;;;;;;;;;;;;;28.29;50.57;101164.57;1776673;79;20092;-79
2021/08/09 07:59:57;;;;;;;;;;;;;;;28.48;50.43;101168.39;1777032;79;20124;-79
2021/08/09 08:02:23;;;;;;;;;;;;;;;28.55;50.02;101161.10;1743775;81;20201;-79
2021/08/09 08:04:49;;;;;;;;;;;;;;;28.39;49.64;101168.66;1773710;79;20112;-79
2021/08/09 08:07:15;;;;;;;;;;;;;;;28.34;49.70;101169.03;1729336;81;20144;-78
2021/08/09 08:09:41;;;;;;;;;;;;;;;28.39;49.49;101169.14;1772619;79;20234;-78
2021/08/09 08:12:07;;;;;;;;;;;;;;;28.40;49.29;101169.50;1743116;81;20149;-78
2021/08/09 08:14:33;;;;;;;;;;;;;;;28.45;49.19;101169.97;1776873;79;20080;-78
2021/08/09 08:17:14;;;;;;;;;;;;;;;28.38;49.12;101168.30;1780623;79;20100;-78
2021/08/09 08:19:40;;;;;;;;;;;;;;;28.20;49.05;101159.97;1775325;79;20186;-78
2021/08/09 08:22:06;;;;;;;;;;;;;;;28.18;48.58;101159.73;1742230;80;20792;-78
2021/08/09 08:24:33;;;;;;;;;;;;;;;28.14;48.42;101164.45;1788155;79;20082;-78
2021/08/09 08:26:59;;;;;;;;;;;;;;;28.13;48.40;101160.10;1778484;79;20254;-78
2021/08/09 08:29:25;;;;;;;;;;;;;;;28.11;48.02;101170.02;1774152;79;20254;-78
2021/08/09 08:31:51;;;;;;;;;;;;;;;27.85;47.91;101167.30;1773857;79;20885;-78
2021/08/09 08:34:17;;;;;;;;;;;;;;;27.53;47.92;101167.19;1775743;79;20187;-78
2021/08/09 08:36:49;;;;;;;;;;;;;;;27.55;47.81;101164.77;1777139;79;20180;-78
2021/08/09 08:39:15;;;;;;;;;;;;;;;27.67;47.85;101173.11;1775139;79;20252;-79
2021/08/09 08:41:42;;;;;;;;;;;;;;;27.69;47.56;101170.33;1779876;79;20161;-80
2021/08/09 08:44:09;;;;;;;;;;;;;;;27.69;47.50;101169.84;1775065;79;20128;-79
2021/08/09 08:46:41;;;;;;;;;;;;;;;27.51;47.24;101173.09;1778279;79;20088;-79
2021/08/09 08:49:14;;;;;;;;;;;;;;;27.38;47.03;101171.88;1781671;79;20108;-79
2021/08/09 08:51:41;;;;;;;;;;;;;;;27.31;46.95;101176.81;1774602;79;20136;-79
2021/08/09 08:54:08;;;;;;;;;;;;;;;27.41;46.78;101176.11;1775442;79;20112;-79
2021/08/09 08:56:41;;;;;;;;;;;;;;;27.85;46.52;101172.63;1778443;79;20132;-79
2021/08/09 08:59:11;;;;;;;;;;;;;;;28.25;46.74;101171.59;1711365;82;20123;-80
2021/08/09 09:01:40;;;;;;;;;;;;;;;28.61;46.97;101166.38;1755772;80;20130;-80
2021/08/09 09:04:27;;;;;;;;;;;;;;;28.83;46.53;101175.63;1759090;80;20136;-80
2021/08/09 09:07:04;;;;;;;;;;;;;;;29.22;46.25;101177.19;1778028;79;20108;-80
2021/08/09 09:09:38;;;;;;;;;;;;;;;29.45;46.17;101184.58;1756131;80;20129;-80
2021/08/09 09:12:16;;;;;;;;;;;;;;;29.35;46.24;101179.16;1747205;81;20081;-80
2021/08/09 09:14:42;;;;;;;;;;;;;;;29.14;45.44;101186.33;1762729;80;20100;-80
2021/08/09 09:17:08;;;;;;;;;;;;;;;29.16;45.64;101181.71;1757525;80;20117;-80
2021/08/09 09:19:41;;;;;;;;;;;;;;;29.16;45.65;101179.05;1763202;80;20101;-80
2021/08/09 09:22:09;;;;;;;;;;;;;;;28.70;45.05;101170.93;1755571;80;20125;-80
2021/08/09 09:24:36;;;;;;;;;;;;;;;28.08;45.11;101182.23;1744228;81;20131;-80
2021/08/09 09:27:07;;;;;;;;;;;;;;;27.63;45.00;101181.44;1758112;80;20129;-80
2021/08/09 09:29:35;;;;;;;;;;;;;;;27.10;44.39;101176.28;1761970;80;20422;-80
2021/08/09 09:32:13;;;;;;;;;;;;;;;26.64;44.12;101175.28;1760439;80;20093;-80
2021/08/09 09:34:49;;;;;;;;;;;;;;;26.32;44.17;101175.03;1759057;80;20397;-80
2021/08/09 09:37:30;;;;;;;;;;;;;;;26.06;44.04;101172.05;1761134;80;20101;-80
2021/08/09 09:40:08;;;;;;;;;;;;;;;26.08;43.87;101166.64;1760297;80;20097;-80
2021/08/09 09:42:36;;;;;;;;;;;;;;;26.04;43.66;101165.53;1744826;80;20432;-80
2021/08/09 09:45:28;;;;;;;;;;;;;;;25.96;43.30;101167.08;1723721;81;20748;-80
2021/08/09 09:48:09;;;;;;;;;;;;;;;25.92;43.33;101170.90;1757868;80;20150;-80
2021/08/09 09:50:37;;;;;;;;;;;;;;;25.97;43.30;101170.94;1728458;82;20117;-80
2021/08/09 09:53:20;;;;;;;;;;;;;;;25.87;43.22;101183.15;1734513;82;20129;-80
2021/08/09 09:55:50;;;;;;;;;;;;;;;25.72;42.92;101181.10;1736203;82;20212;-80
2021/08/09 09:58:17;;;;;;;;;;;;;;;25.54;42.81;101174.89;1734224;82;20105;-80
2021/08/09 10:00:43;;;;;;;;;;;;;;;25.50;42.84;101176.05;1737421;82;20117;-80
2021/08/09 10:03:10;;;;;;;;;;;;;;;25.46;42.70;101181.22;1736501;82;20104;-80
2021/08/09 10:05:41;;;;;;;;;;;;;;;25.48;42.67;101175.31;1735745;82;20089;-80
2021/08/09 10:08:19;;;;;;;;;;;;;;;25.47;42.55;101181.12;1736982;81;20101;-80
2021/08/09 10:10:53;;;;;;;;;;;;;;;25.36;42.54;101187.15;1734147;82;20105;-80
2021/08/09 10:13:36;;;;;;;;;;;;;;;25.17;42.33;101190.67;1738341;82;20093;-80
2021/08/09 10:16:07;;;;;;;;;;;;;;;25.07;42.32;101193.57;1737171;82;20105;-80
2021/08/09 10:18:35;;;;;;;;;;;;;;;25.01;42.36;101186.89;1734859;82;20093;-80
2021/08/09 10:21:03;;;;;;;;;;;;;;;25.02;42.42;101184.62;1740638;82;20101;-80
2021/08/09 10:23:46;;;;;;;;;;;;;;;25.04;42.34;101186.69;1733333;82;20089;-80
2021/08/09 10:26:17;;;;;;;;;;;;;;;25.12;42.50;101197.23;1734644;82;20124;-80
2021/08/09 10:28:57;;;;;;;;;;;;;;;25.11;42.30;101188.92;1728368;81;20113;-80
2021/08/09 10:31:33;;;;;;;;;;;;;;;25.12;42.30;101190.14;1735756;82;20119;-80
2021/08/09 10:33:59;;;;;;;;;;;;;;;25.06;42.19;101191.88;1737445;82;20105;-80
2021/08/09 10:36:26;;;;;;;;;;;;;;;25.13;42.38;101193.64;1739465;82;20097;-80
2021/08/09 10:38:54;;;;;;;;;;;;;;;25.22;42.30;101194.34;1737732;82;20089;-80
2021/08/09 10:41:36;;;;;;;;;;;;;;;25.31;42.34;101198.53;1734872;82;20081;-80
2021/08/09 10:44:09;;;;;;;;;;;;;;;25.29;41.97;101204.41;1737937;82;20089;-80
2021/08/09 10:46:44;;;;;;;;;;;;;;;25.25;42.11;101202.07;1735950;82;20124;-80
2021/08/09 10:49:31;;;;;;;;;;;;;;;25.23;42.08;101196.03;1733778;82;20121;-80
2021/08/09 10:52:00;;;;;;;;;;;;;;;25.18;42.00;101194.17;1736801;82;20129;-80
2021/08/09 10:54:35;;;;;;;;;;;;;;;25.26;42.04;101183.91;1737672;82;20101;-80
2021/08/09 10:57:02;;;;;;;;;;;;;;;25.22;41.99;101195.19;1734705;82;20121;-80
2021/08/09 10:59:44;;;;;;;;;;;;;;;25.27;41.89;101194.88;1737912;82;20114;-80
2021/08/09 11:02:18;;;;;;;;;;;;;;;25.26;41.88;101195.34;1736520;82;20089;-80
2021/08/09 11:04:44;;;;;;;;;;;;;;;25.31;41.81;101191.91;1736564;82;20124;-80
2021/08/09 11:07:17;;;;;;;;;;;;;;;25.40;41.81;101199.70;1737747;82;20737;-80
2021/08/09 11:09:45;;;;;;;;;;;;;;;25.39;41.75;101194.03;1742694;82;20116;-80
2021/08/09 11:12:20;;;;;;;;;;;;;;;25.45;41.85;101190.13;1747314;81;20111;-80
2021/08/09 11:15:10;;;;;;;;;;;;;;;25.47;41.85;101183.77;1742924;80;20084;-80
2021/08/09 11:17:53;;;;;;;;;;;;;;;25.51;41.68;101191.83;1749971;81;20124;-80
2021/08/09 11:20:31;;;;;;;;;;;;;;;25.55;41.59;101199.09;1750284;81;20404;-80
2021/08/09 11:23:10;;;;;;;;;;;;;;;25.58;41.58;101201.53;1748609;81;20121;-80
2021/08/09 11:25:48;;;;;;;;;;;;;;;25.53;41.61;101185.95;1772271;80;20456;-80
2021/08/09 11:28:19;;;;;;;;;;;;;;;25.54;41.74;101187.65;1754748;80;20088;-79
2021/08/09 11:30:51;;;;;;;;;;;;;;;25.54;41.50;101192.09;1755754;80;20641;-79
2021/08/09 11:33:37;;;;;;;;;;;;;;;25.46;41.41;101191.34;1755804;80;20132;-79
2021/08/09 11:36:08;;;;;;;;;;;;;;;25.36;41.26;101184.98;1753584;80;20093;-79
2021/08/09 11:38:52;;;;;;;;;;;;;;;25.27;41.40;101185.13;1752390;80;20089;-79
2021/08/09 11:41:23;;;;;;;;;;;;;;;25.24;41.29;101191.11;1746707;80;20104;-79
2021/08/09 11:43:52;;;;;;;;;;;;;;;25.22;41.33;101172.69;1729086;81;20551;-79
2021/08/09 11:46:19;;;;;;;;;;;;;;;25.23;41.38;101182.32;1734591;81;20131;-79
2021/08/09 11:48:47;;;;;;;;;;;;;;;25.27;41.28;101179.84;1756869;80;20185;-79
2021/08/09 11:51:15;;;;;;;;;;;;;;;25.30;41.02;101184.92;1772449;80;20124;-79
2021/08/09 11:53:46;;;;;;;;;;;;;;;25.26;41.12;101188.73;1730853;81;20090;-78
2021/08/09 11:56:21;;;;;;;;;;;;;;;25.20;40.84;101185.17;1770937;80;20297;-78
2021/08/09 11:58:48;;;;;;;;;;;;;;;25.18;40.78;101184.91;1773485;80;20102;-78
2021/08/09 12:01:34;;;;;;;;;;;;;;;25.15;40.76;101181.99;1776225;79;20132;-79
2021/08/09 12:04:08;;;;;;;;;;;;;;;25.14;40.82;101177.66;1765129;80;20132;-79
2021/08/09 12:06:56;;;;;;;;;;;;;;;25.10;40.96;101177.48;1769620;80;20124;-79
2021/08/09 12:09:24;;;;;;;;;;;;;;;25.20;40.79;101179.87;1773815;79;20124;-79
2021/08/09 12:11:58;;;;;;;;;;;;;;;25.21;40.49;101188.19;1755849;79;20104;-79
2021/08/09 12:14:26;;;;;;;;;;;;;;;25.20;40.50;101182.53;1757930;80;20112;-79
2021/08/09 12:16:56;;;;;;;;;;;;;;;25.22;40.48;101186.39;1755973;80;20136;-79
2021/08/09 12:19:38;;;;;;;;;;;;;;;25.24;40.81;101178.72;1755057;80;20165;-79
2021/08/09 12:22:18;;;;;;;;;;;;;;;25.28;40.66;101183.33;1757321;81;20120;-79
2021/08/09 12:24:50;;;;;;;;;;;;;;;25.29;40.48;101165.17;1761625;80;20090;-79
2021/08/09 12:27:19;;;;;;;;;;;;;;;25.32;40.50;101184.34;1741678;80;20123;-79
2021/08/09 12:30:11;;;;;;;;;;;;;;;25.31;40.49;101173.86;1754754;81;20106;-79
2021/08/09 12:33:00;;;;;;;;;;;;;;;25.27;40.60;101177.19;1750646;81;20306;-79
2021/08/09 12:35:35;;;;;;;;;;;;;;;25.36;40.52;101177.88;1742902;81;20104;-79
2021/08/09 12:38:14;;;;;;;;;;;;;;;25.43;40.54;101180.11;1745799;80;20100;-79
2021/08/09 12:40:44;;;;;;;;;;;;;;;25.40;40.33;101178.05;1750637;80;20090;-79
2021/08/09 12:43:14;;;;;;;;;;;;;;;25.37;40.34;101182.23;1756708;81;20137;-79
2021/08/09 12:45:41;;;;;;;;;;;;;;;25.45;40.58;101186.14;1765747;80;20098;-79
2021/08/09 12:48:08;;;;;;;;;;;;;;;25.57;40.37;101178.17;1762324;80;20132;-80
2021/08/09 12:50:36;;;;;;;;;;;;;;;25.70;40.40;101190.11;1762695;80;20104;-79